sensor_id;sensor_type;location;lat;lon;timestamp;P1;durP1;ratioP1;P2;durP2;ratioP2
42682;SDS011;28293;50.930;3.464;2023-03-23T00:01:28;8.73;;;4.18;;
42682;SDS011;28293;50.930;3.464;2023-03-23T00:03:57;7.05;;;4.25;;
42682;SDS011;28293;50.930;3.464;2023-03-23T00:06:25;8.43;;;4.28;;
42682;SDS011;28293;50.930;3.464;2023-03-23T00:08:52;8.85;;;4.45;;
42682;SDS011;28293;50.930;3.464;2023-03-23T00:11:24;8.13;;;4.43;;
42682;SDS011;28293;50.930;3.464;2023-03-23T00:13:54;8.43;;;4.38;;
42682;SDS011;28293;50.930;3.464;2023-03-23T00:16:22;7.13;;;4.22;;
42682;SDS011;28293;50.930;3.464;2023-03-23T00:18:55;8.73;;;4.20;;
42682;SDS011;28293;50.930;3.464;2023-03-23T00:21:28;10.55;;;4.72;;
42682;SDS011;28293;50.930;3.464;2023-03-23T00:24:06;7.05;;;3.88;;
42682;SDS011;28293;50.930;3.464;2023-03-23T00:26:37;7.13;;;3.88;;
42682;SDS011;28293;50.930;3.464;2023-03-23T00:29:29;6.10;;;3.75;;
42682;SDS011;28293;50.930;3.464;2023-03-23T00:31:54;7.57;;;3.92;;
42682;SDS011;28293;50.930;3.464;2023-03-23T00:34:22;6.50;;;3.72;;
42682;SDS011;28293;50.930;3.464;2023-03-23T00:36:50;6.50;;;3.58;;
42682;SDS011;28293;50.930;3.464;2023-03-23T00:39:18;8.10;;;3.83;;
42682;SDS011;28293;50.930;3.464;2023-03-23T00:41:44;7.38;;;3.50;;
42682;SDS011;28293;50.930;3.464;2023-03-23T00:44:11;7.25;;;3.53;;
42682;SDS011;28293;50.930;3.464;2023-03-23T00:46:45;7.38;;;3.60;;
42682;SDS011;28293;50.930;3.464;2023-03-23T00:49:14;7.53;;;3.28;;
42682;SDS011;28293;50.930;3.464;2023-03-23T00:51:42;7.82;;;3.60;;
42682;SDS011;28293;50.930;3.464;2023-03-23T00:54:08;5.43;;;3.10;;
42682;SDS011;28293;50.930;3.464;2023-03-23T00:56:35;6.32;;;3.33;;
42682;SDS011;28293;50.930;3.464;2023-03-23T00:59:01;7.65;;;3.40;;
42682;SDS011;28293;50.930;3.464;2023-03-23T01:01:28;6.40;;;3.10;;
42682;SDS011;28293;50.930;3.464;2023-03-23T01:03:54;6.10;;;3.20;;
42682;SDS011;28293;50.930;3.464;2023-03-23T01:06:25;6.38;;;2.70;;
42682;SDS011;28293;50.930;3.464;2023-03-23T01:08:52;5.50;;;2.92;;
42682;SDS011;28293;50.930;3.464;2023-03-23T01:11:19;5.28;;;2.88;;
42682;SDS011;28293;50.930;3.464;2023-03-23T01:13:45;7.47;;;3.60;;
42682;SDS011;28293;50.930;3.464;2023-03-23T01:16:11;6.63;;;3.40;;
42682;SDS011;28293;50.930;3.464;2023-03-23T01:18:37;5.28;;;3.15;;
42682;SDS011;28293;50.930;3.464;2023-03-23T01:21:07;9.02;;;3.63;;
42682;SDS011;28293;50.930;3.464;2023-03-23T01:23:35;6.25;;;3.17;;
42682;SDS011;28293;50.930;3.464;2023-03-23T01:26:06;7.25;;;3.58;;
42682;SDS011;28293;50.930;3.464;2023-03-23T01:28:33;7.50;;;3.10;;
42682;SDS011;28293;50.930;3.464;2023-03-23T01:31:07;7.70;;;3.17;;
42682;SDS011;28293;50.930;3.464;2023-03-23T01:33:34;6.32;;;3.13;;
42682;SDS011;28293;50.930;3.464;2023-03-23T01:36:07;5.63;;;2.85;;
42682;SDS011;28293;50.930;3.464;2023-03-23T01:38:35;6.18;;;2.67;;
42682;SDS011;28293;50.930;3.464;2023-03-23T01:41:02;5.18;;;2.60;;
42682;SDS011;28293;50.930;3.464;2023-03-23T01:43:28;6.75;;;2.85;;
42682;SDS011;28293;50.930;3.464;2023-03-23T01:45:54;5.85;;;2.60;;
42682;SDS011;28293;50.930;3.464;2023-03-23T01:48:22;6.57;;;2.75;;
42682;SDS011;28293;50.930;3.464;2023-03-23T01:51:01;5.97;;;2.80;;
42682;SDS011;28293;50.930;3.464;2023-03-23T01:53:39;5.05;;;2.70;;
42682;SDS011;28293;50.930;3.464;2023-03-23T01:56:10;5.05;;;2.25;;
42682;SDS011;28293;50.930;3.464;2023-03-23T01:58:39;5.95;;;2.75;;
42682;SDS011;28293;50.930;3.464;2023-03-23T02:01:08;6.68;;;2.50;;
42682;SDS011;28293;50.930;3.464;2023-03-23T02:03:37;5.57;;;2.58;;
42682;SDS011;28293;50.930;3.464;2023-03-23T02:06:04;6.85;;;2.53;;
42682;SDS011;28293;50.930;3.464;2023-03-23T02:08:30;7.53;;;2.63;;
42682;SDS011;28293;50.930;3.464;2023-03-23T02:10:58;5.05;;;2.30;;
42682;SDS011;28293;50.930;3.464;2023-03-23T02:13:24;8.02;;;2.60;;
42682;SDS011;28293;50.930;3.464;2023-03-23T02:15:57;10.20;;;2.83;;
42682;SDS011;28293;50.930;3.464;2023-03-23T02:21:12;7.10;;;2.33;;
42682;SDS011;28293;50.930;3.464;2023-03-23T02:34:52;10.60;;;3.17;;
42682;SDS011;28293;50.930;3.464;2023-03-23T02:37:31;6.18;;;2.17;;
42682;SDS011;28293;50.930;3.464;2023-03-23T02:40:04;8.18;;;2.45;;
42682;SDS011;28293;50.930;3.464;2023-03-23T02:42:36;5.78;;;2.10;;
42682;SDS011;28293;50.930;3.464;2023-03-23T02:45:05;7.18;;;2.58;;
42682;SDS011;28293;50.930;3.464;2023-03-23T02:47:33;8.32;;;2.55;;
42682;SDS011;28293;50.930;3.464;2023-03-23T02:50:02;8.50;;;1.98;;
42682;SDS011;28293;50.930;3.464;2023-03-23T02:52:31;8.90;;;2.60;;
42682;SDS011;28293;50.930;3.464;2023-03-23T02:54:59;6.80;;;2.47;;
42682;SDS011;28293;50.930;3.464;2023-03-23T02:57:26;6.28;;;2.40;;
42682;SDS011;28293;50.930;3.464;2023-03-23T02:59:53;6.53;;;2.72;;
42682;SDS011;28293;50.930;3.464;2023-03-23T03:02:23;7.38;;;2.35;;
42682;SDS011;28293;50.930;3.464;2023-03-23T03:04:59;5.65;;;2.60;;
42682;SDS011;28293;50.930;3.464;2023-03-23T03:10:29;7.03;;;2.53;;
42682;SDS011;28293;50.930;3.464;2023-03-23T03:13:08;6.93;;;2.45;;
42682;SDS011;28293;50.930;3.464;2023-03-23T03:15:51;10.15;;;2.20;;
42682;SDS011;28293;50.930;3.464;2023-03-23T03:21:20;6.22;;;2.10;;
42682;SDS011;28293;50.930;3.464;2023-03-23T03:23:50;8.77;;;2.53;;
42682;SDS011;28293;50.930;3.464;2023-03-23T03:26:24;6.80;;;2.45;;
42682;SDS011;28293;50.930;3.464;2023-03-23T03:28:54;5.18;;;1.80;;
42682;SDS011;28293;50.930;3.464;2023-03-23T03:31:21;8.30;;;2.67;;
42682;SDS011;28293;50.930;3.464;2023-03-23T03:33:58;7.25;;;2.58;;
42682;SDS011;28293;50.930;3.464;2023-03-23T03:36:27;7.05;;;2.65;;
42682;SDS011;28293;50.930;3.464;2023-03-23T03:39:00;6.78;;;2.95;;
42682;SDS011;28293;50.930;3.464;2023-03-23T03:41:30;7.68;;;2.67;;
42682;SDS011;28293;50.930;3.464;2023-03-23T03:43:55;5.30;;;2.15;;
42682;SDS011;28293;50.930;3.464;2023-03-23T03:46:21;6.85;;;2.60;;
42682;SDS011;28293;50.930;3.464;2023-03-23T03:48:47;5.78;;;2.13;;
42682;SDS011;28293;50.930;3.464;2023-03-23T03:51:12;8.15;;;2.30;;
42682;SDS011;28293;50.930;3.464;2023-03-23T03:53:38;6.55;;;2.22;;
42682;SDS011;28293;50.930;3.464;2023-03-23T03:56:04;6.75;;;2.25;;
42682;SDS011;28293;50.930;3.464;2023-03-23T03:58:30;9.93;;;2.95;;
42682;SDS011;28293;50.930;3.464;2023-03-23T04:00:57;7.13;;;2.78;;
42682;SDS011;28293;50.930;3.464;2023-03-23T04:03:24;6.55;;;2.38;;
42682;SDS011;28293;50.930;3.464;2023-03-23T04:05:51;8.35;;;2.53;;
42682;SDS011;28293;50.930;3.464;2023-03-23T04:08:20;6.80;;;2.83;;
42682;SDS011;28293;50.930;3.464;2023-03-23T04:10:49;9.70;;;2.63;;
42682;SDS011;28293;50.930;3.464;2023-03-23T04:13:15;8.57;;;2.63;;
42682;SDS011;28293;50.930;3.464;2023-03-23T04:15:41;6.85;;;2.10;;
42682;SDS011;28293;50.930;3.464;2023-03-23T04:18:08;8.10;;;2.88;;
42682;SDS011;28293;50.930;3.464;2023-03-23T04:20:34;12.00;;;3.15;;
42682;SDS011;28293;50.930;3.464;2023-03-23T04:22:59;11.30;;;2.70;;
42682;SDS011;28293;50.930;3.464;2023-03-23T04:25:27;7.50;;;2.40;;
42682;SDS011;28293;50.930;3.464;2023-03-23T04:27:53;9.45;;;3.00;;
42682;SDS011;28293;50.930;3.464;2023-03-23T04:30:22;10.30;;;2.45;;
42682;SDS011;28293;50.930;3.464;2023-03-23T04:32:50;9.68;;;3.08;;
42682;SDS011;28293;50.930;3.464;2023-03-23T04:35:17;11.13;;;3.80;;
42682;SDS011;28293;50.930;3.464;2023-03-23T04:37:44;7.20;;;2.33;;
42682;SDS011;28293;50.930;3.464;2023-03-23T04:40:11;11.05;;;3.13;;
42682;SDS011;28293;50.930;3.464;2023-03-23T04:42:39;10.88;;;2.90;;
42682;SDS011;28293;50.930;3.464;2023-03-23T04:45:16;10.40;;;2.90;;
42682;SDS011;28293;50.930;3.464;2023-03-23T04:47:46;9.52;;;3.30;;
42682;SDS011;28293;50.930;3.464;2023-03-23T04:50:19;14.50;;;3.40;;
42682;SDS011;28293;50.930;3.464;2023-03-23T04:52:49;11.82;;;3.20;;
42682;SDS011;28293;50.930;3.464;2023-03-23T04:55:16;10.00;;;3.13;;
42682;SDS011;28293;50.930;3.464;2023-03-23T04:57:43;15.90;;;3.35;;
42682;SDS011;28293;50.930;3.464;2023-03-23T05:00:09;15.60;;;3.28;;
42682;SDS011;28293;50.930;3.464;2023-03-23T05:02:39;12.05;;;3.47;;
42682;SDS011;28293;50.930;3.464;2023-03-23T05:05:06;11.30;;;3.28;;
42682;SDS011;28293;50.930;3.464;2023-03-23T05:07:32;12.23;;;3.15;;
42682;SDS011;28293;50.930;3.464;2023-03-23T05:09:58;14.85;;;3.97;;
42682;SDS011;28293;50.930;3.464;2023-03-23T05:12:24;11.02;;;3.13;;
42682;SDS011;28293;50.930;3.464;2023-03-23T05:14:49;13.73;;;3.75;;
42682;SDS011;28293;50.930;3.464;2023-03-23T05:17:15;17.15;;;4.10;;
42682;SDS011;28293;50.930;3.464;2023-03-23T05:19:44;10.50;;;4.03;;
42682;SDS011;28293;50.930;3.464;2023-03-23T05:22:14;15.40;;;3.90;;
42682;SDS011;28293;50.930;3.464;2023-03-23T05:24:39;14.10;;;4.75;;
42682;SDS011;28293;50.930;3.464;2023-03-23T05:27:05;14.18;;;3.70;;
42682;SDS011;28293;50.930;3.464;2023-03-23T05:29:33;11.23;;;3.58;;
42682;SDS011;28293;50.930;3.464;2023-03-23T05:32:01;8.35;;;2.47;;
42682;SDS011;28293;50.930;3.464;2023-03-23T05:34:28;8.30;;;2.60;;
42682;SDS011;28293;50.930;3.464;2023-03-23T05:36:57;9.05;;;2.53;;
42682;SDS011;28293;50.930;3.464;2023-03-23T05:39:25;6.00;;;2.17;;
42682;SDS011;28293;50.930;3.464;2023-03-23T05:41:51;8.75;;;2.70;;
42682;SDS011;28293;50.930;3.464;2023-03-23T05:44:17;8.50;;;2.22;;
42682;SDS011;28293;50.930;3.464;2023-03-23T05:46:43;7.20;;;2.38;;
42682;SDS011;28293;50.930;3.464;2023-03-23T05:49:10;7.70;;;2.65;;
42682;SDS011;28293;50.930;3.464;2023-03-23T05:51:35;7.75;;;2.55;;
42682;SDS011;28293;50.930;3.464;2023-03-23T05:54:01;7.72;;;2.40;;
42682;SDS011;28293;50.930;3.464;2023-03-23T05:56:28;9.45;;;2.80;;
42682;SDS011;28293;50.930;3.464;2023-03-23T05:58:55;12.02;;;2.47;;
42682;SDS011;28293;50.930;3.464;2023-03-23T06:01:21;9.93;;;2.75;;
42682;SDS011;28293;50.930;3.464;2023-03-23T06:03:48;10.30;;;2.90;;
42682;SDS011;28293;50.930;3.464;2023-03-23T06:06:16;9.75;;;2.60;;
42682;SDS011;28293;50.930;3.464;2023-03-23T06:08:42;14.02;;;2.78;;
42682;SDS011;28293;50.930;3.464;2023-03-23T06:11:09;8.93;;;2.70;;
42682;SDS011;28293;50.930;3.464;2023-03-23T06:13:35;8.32;;;2.50;;
42682;SDS011;28293;50.930;3.464;2023-03-23T06:16:01;8.02;;;2.17;;
42682;SDS011;28293;50.930;3.464;2023-03-23T06:18:29;8.25;;;2.25;;
42682;SDS011;28293;50.930;3.464;2023-03-23T06:20:58;9.05;;;2.72;;
42682;SDS011;28293;50.930;3.464;2023-03-23T06:23:25;7.88;;;2.47;;
42682;SDS011;28293;50.930;3.464;2023-03-23T06:25:56;8.57;;;2.63;;
42682;SDS011;28293;50.930;3.464;2023-03-23T06:28:24;9.93;;;2.40;;
42682;SDS011;28293;50.930;3.464;2023-03-23T06:30:50;8.32;;;3.42;;
42682;SDS011;28293;50.930;3.464;2023-03-23T06:33:16;7.65;;;2.42;;
42682;SDS011;28293;50.930;3.464;2023-03-23T06:35:42;8.45;;;2.28;;
42682;SDS011;28293;50.930;3.464;2023-03-23T06:38:08;10.30;;;2.65;;
42682;SDS011;28293;50.930;3.464;2023-03-23T06:40:34;11.05;;;2.67;;
42682;SDS011;28293;50.930;3.464;2023-03-23T06:43:03;8.35;;;2.13;;
42682;SDS011;28293;50.930;3.464;2023-03-23T06:45:30;7.85;;;2.78;;
42682;SDS011;28293;50.930;3.464;2023-03-23T06:47:56;10.15;;;2.47;;
42682;SDS011;28293;50.930;3.464;2023-03-23T06:50:22;10.70;;;2.72;;
42682;SDS011;28293;50.930;3.464;2023-03-23T06:52:48;10.48;;;3.50;;
42682;SDS011;28293;50.930;3.464;2023-03-23T06:55:16;11.82;;;3.22;;
42682;SDS011;28293;50.930;3.464;2023-03-23T06:57:42;9.93;;;3.08;;
42682;SDS011;28293;50.930;3.464;2023-03-23T07:00:11;10.13;;;3.30;;
42682;SDS011;28293;50.930;3.464;2023-03-23T07:02:42;11.10;;;3.15;;
42682;SDS011;28293;50.930;3.464;2023-03-23T07:05:09;11.23;;;2.80;;
42682;SDS011;28293;50.930;3.464;2023-03-23T07:07:39;7.07;;;2.72;;
42682;SDS011;28293;50.930;3.464;2023-03-23T07:10:06;8.75;;;2.80;;
42682;SDS011;28293;50.930;3.464;2023-03-23T07:12:34;13.90;;;3.08;;
42682;SDS011;28293;50.930;3.464;2023-03-23T07:15:01;10.43;;;2.42;;
42682;SDS011;28293;50.930;3.464;2023-03-23T07:17:27;7.97;;;2.90;;
42682;SDS011;28293;50.930;3.464;2023-03-23T07:19:53;8.82;;;3.17;;
42682;SDS011;28293;50.930;3.464;2023-03-23T07:22:19;8.25;;;3.20;;
42682;SDS011;28293;50.930;3.464;2023-03-23T07:24:45;8.02;;;2.30;;
42682;SDS011;28293;50.930;3.464;2023-03-23T07:27:11;7.90;;;2.42;;
42682;SDS011;28293;50.930;3.464;2023-03-23T07:29:37;8.80;;;3.10;;
42682;SDS011;28293;50.930;3.464;2023-03-23T07:32:03;8.30;;;2.33;;
42682;SDS011;28293;50.930;3.464;2023-03-23T07:34:30;9.27;;;2.67;;
42682;SDS011;28293;50.930;3.464;2023-03-23T07:36:56;11.77;;;2.42;;
42682;SDS011;28293;50.930;3.464;2023-03-23T07:39:23;10.35;;;2.38;;
42682;SDS011;28293;50.930;3.464;2023-03-23T07:41:49;6.65;;;2.15;;
42682;SDS011;28293;50.930;3.464;2023-03-23T07:44:15;8.98;;;2.65;;
42682;SDS011;28293;50.930;3.464;2023-03-23T07:46:41;6.38;;;2.45;;
42682;SDS011;28293;50.930;3.464;2023-03-23T07:49:07;8.70;;;2.30;;
42682;SDS011;28293;50.930;3.464;2023-03-23T07:51:34;7.95;;;2.38;;
42682;SDS011;28293;50.930;3.464;2023-03-23T07:54:00;5.78;;;2.28;;
42682;SDS011;28293;50.930;3.464;2023-03-23T07:56:27;6.32;;;2.10;;
42682;SDS011;28293;50.930;3.464;2023-03-23T07:58:54;7.53;;;1.92;;
42682;SDS011;28293;50.930;3.464;2023-03-23T08:01:20;10.27;;;2.75;;
42682;SDS011;28293;50.930;3.464;2023-03-23T08:03:46;8.18;;;2.42;;
42682;SDS011;28293;50.930;3.464;2023-03-23T08:06:12;8.05;;;2.70;;
42682;SDS011;28293;50.930;3.464;2023-03-23T08:08:37;8.77;;;3.03;;
42682;SDS011;28293;50.930;3.464;2023-03-23T08:11:05;10.93;;;3.10;;
42682;SDS011;28293;50.930;3.464;2023-03-23T08:13:31;9.77;;;3.20;;
42682;SDS011;28293;50.930;3.464;2023-03-23T08:15:58;9.95;;;2.58;;
42682;SDS011;28293;50.930;3.464;2023-03-23T08:18:25;11.52;;;2.88;;
42682;SDS011;28293;50.930;3.464;2023-03-23T08:20:51;10.07;;;2.78;;
42682;SDS011;28293;50.930;3.464;2023-03-23T08:23:18;8.27;;;2.40;;
42682;SDS011;28293;50.930;3.464;2023-03-23T08:25:44;9.32;;;2.83;;
42682;SDS011;28293;50.930;3.464;2023-03-23T08:28:11;8.35;;;2.75;;
42682;SDS011;28293;50.930;3.464;2023-03-23T08:30:39;9.30;;;2.35;;
42682;SDS011;28293;50.930;3.464;2023-03-23T08:33:06;13.40;;;2.50;;
42682;SDS011;28293;50.930;3.464;2023-03-23T08:35:35;12.15;;;2.92;;
42682;SDS011;28293;50.930;3.464;2023-03-23T08:38:01;9.00;;;2.72;;
42682;SDS011;28293;50.930;3.464;2023-03-23T08:40:28;9.73;;;2.40;;
42682;SDS011;28293;50.930;3.464;2023-03-23T08:42:54;9.32;;;2.25;;
42682;SDS011;28293;50.930;3.464;2023-03-23T08:45:21;7.05;;;2.60;;
42682;SDS011;28293;50.930;3.464;2023-03-23T08:47:48;9.68;;;2.97;;
42682;SDS011;28293;50.930;3.464;2023-03-23T08:50:17;8.95;;;2.92;;
42682;SDS011;28293;50.930;3.464;2023-03-23T08:52:45;7.70;;;2.50;;
42682;SDS011;28293;50.930;3.464;2023-03-23T08:55:11;7.70;;;2.28;;
42682;SDS011;28293;50.930;3.464;2023-03-23T08:57:37;10.27;;;2.35;;
42682;SDS011;28293;50.930;3.464;2023-03-23T09:00:04;9.43;;;2.58;;
42682;SDS011;28293;50.930;3.464;2023-03-23T09:02:53;6.38;;;2.00;;
42682;SDS011;28293;50.930;3.464;2023-03-23T09:05:21;7.13;;;2.30;;
42682;SDS011;28293;50.930;3.464;2023-03-23T09:07:50;6.38;;;2.10;;
42682;SDS011;28293;50.930;3.464;2023-03-23T09:10:17;5.38;;;2.30;;
42682;SDS011;28293;50.930;3.464;2023-03-23T09:12:44;7.28;;;2.33;;
42682;SDS011;28293;50.930;3.464;2023-03-23T09:15:13;6.18;;;2.28;;
42682;SDS011;28293;50.930;3.464;2023-03-23T09:17:41;4.65;;;1.85;;
42682;SDS011;28293;50.930;3.464;2023-03-23T09:20:10;7.60;;;2.60;;
42682;SDS011;28293;50.930;3.464;2023-03-23T09:22:38;8.77;;;2.20;;
42682;SDS011;28293;50.930;3.464;2023-03-23T09:25:06;8.73;;;2.10;;
42682;SDS011;28293;50.930;3.464;2023-03-23T09:27:33;4.95;;;2.20;;
42682;SDS011;28293;50.930;3.464;2023-03-23T09:30:02;7.70;;;2.28;;
42682;SDS011;28293;50.930;3.464;2023-03-23T09:32:31;8.80;;;2.47;;
42682;SDS011;28293;50.930;3.464;2023-03-23T09:35:01;7.95;;;2.45;;
42682;SDS011;28293;50.930;3.464;2023-03-23T09:37:28;8.65;;;2.60;;
42682;SDS011;28293;50.930;3.464;2023-03-23T09:39:55;8.65;;;2.42;;
42682;SDS011;28293;50.930;3.464;2023-03-23T09:48:27;11.88;;;2.90;;
42682;SDS011;28293;50.930;3.464;2023-03-23T09:50:41;9.60;;;2.60;;
42682;SDS011;28293;50.930;3.464;2023-03-23T09:53:26;7.60;;;2.70;;
42682;SDS011;28293;50.930;3.464;2023-03-23T09:56:00;9.70;;;2.97;;
42682;SDS011;28293;50.930;3.464;2023-03-23T09:58:31;11.55;;;3.88;;
42682;SDS011;28293;50.930;3.464;2023-03-23T10:03:39;10.30;;;2.70;;
42682;SDS011;28293;50.930;3.464;2023-03-23T10:06:11;11.25;;;3.20;;
42682;SDS011;28293;50.930;3.464;2023-03-23T10:08:43;10.32;;;3.30;;
42682;SDS011;28293;50.930;3.464;2023-03-23T10:19:54;11.93;;;3.90;;
42682;SDS011;28293;50.930;3.464;2023-03-23T10:25:35;8.82;;;2.67;;
42682;SDS011;28293;50.930;3.464;2023-03-23T10:28:13;12.98;;;3.63;;
42682;SDS011;28293;50.930;3.464;2023-03-23T10:30:45;11.02;;;3.55;;
42682;SDS011;28293;50.930;3.464;2023-03-23T10:33:25;9.50;;;3.37;;
42682;SDS011;28293;50.930;3.464;2023-03-23T10:39:06;9.38;;;3.42;;
42682;SDS011;28293;50.930;3.464;2023-03-23T10:41:42;13.10;;;3.85;;
42682;SDS011;28293;50.930;3.464;2023-03-23T10:44:20;12.43;;;4.28;;
42682;SDS011;28293;50.930;3.464;2023-03-23T10:46:51;12.65;;;3.45;;
42682;SDS011;28293;50.930;3.464;2023-03-23T10:49:20;12.77;;;3.85;;
42682;SDS011;28293;50.930;3.464;2023-03-23T10:54:46;12.15;;;3.47;;
42682;SDS011;28293;50.930;3.464;2023-03-23T10:57:26;12.43;;;3.05;;
42682;SDS011;28293;50.930;3.464;2023-03-23T11:00:07;12.02;;;3.38;;
42682;SDS011;28293;50.930;3.464;2023-03-23T11:02:42;13.10;;;3.28;;
42682;SDS011;28293;50.930;3.464;2023-03-23T11:05:20;13.98;;;3.63;;
42682;SDS011;28293;50.930;3.464;2023-03-23T11:07:53;11.45;;;3.33;;
42682;SDS011;28293;50.930;3.464;2023-03-23T11:10:21;10.25;;;3.00;;
42682;SDS011;28293;50.930;3.464;2023-03-23T11:12:48;10.90;;;3.28;;
42682;SDS011;28293;50.930;3.464;2023-03-23T11:17:58;13.35;;;3.70;;
42682;SDS011;28293;50.930;3.464;2023-03-23T11:20:27;13.10;;;3.38;;
42682;SDS011;28293;50.930;3.464;2023-03-23T11:22:54;14.70;;;3.55;;
42682;SDS011;28293;50.930;3.464;2023-03-23T11:25:21;14.65;;;3.30;;
42682;SDS011;28293;50.930;3.464;2023-03-23T11:27:47;12.75;;;3.80;;
42682;SDS011;28293;50.930;3.464;2023-03-23T11:32:46;12.73;;;3.85;;
42682;SDS011;28293;50.930;3.464;2023-03-23T11:35:22;12.75;;;3.92;;
42682;SDS011;28293;50.930;3.464;2023-03-23T11:37:52;13.15;;;3.95;;
42682;SDS011;28293;50.930;3.464;2023-03-23T11:40:30;18.27;;;4.30;;
42682;SDS011;28293;50.930;3.464;2023-03-23T11:43:01;21.02;;;3.80;;
42682;SDS011;28293;50.930;3.464;2023-03-23T11:45:50;14.18;;;3.80;;
42682;SDS011;28293;50.930;3.464;2023-03-23T11:56:30;10.45;;;3.40;;
42682;SDS011;28293;50.930;3.464;2023-03-23T11:59:01;14.93;;;3.28;;
42682;SDS011;28293;50.930;3.464;2023-03-23T12:04:23;15.55;;;3.30;;
42682;SDS011;28293;50.930;3.464;2023-03-23T12:15:26;15.27;;;3.83;;
42682;SDS011;28293;50.930;3.464;2023-03-23T12:26:24;10.85;;;2.85;;
42682;SDS011;28293;50.930;3.464;2023-03-23T12:42:54;11.98;;;3.60;;
42682;SDS011;28293;50.930;3.464;2023-03-23T12:46:06;18.10;;;4.93;;
42682;SDS011;28293;50.930;3.464;2023-03-23T12:48:28;17.65;;;4.63;;
42682;SDS011;28293;50.930;3.464;2023-03-23T12:53:46;12.93;;;4.25;;
42682;SDS011;28293;50.930;3.464;2023-03-23T12:59:29;14.55;;;3.78;;
42682;SDS011;28293;50.930;3.464;2023-03-23T13:07:52;18.52;;;3.60;;
42682;SDS011;28293;50.930;3.464;2023-03-23T13:13:03;16.38;;;4.38;;
42682;SDS011;28293;50.930;3.464;2023-03-23T13:23:56;15.30;;;3.50;;
42682;SDS011;28293;50.930;3.464;2023-03-23T13:26:28;14.60;;;3.38;;
42682;SDS011;28293;50.930;3.464;2023-03-23T13:36:42;14.15;;;4.03;;
42682;SDS011;28293;50.930;3.464;2023-03-23T13:39:20;13.30;;;4.05;;
42682;SDS011;28293;50.930;3.464;2023-03-23T13:52:36;10.85;;;3.58;;
42682;SDS011;28293;50.930;3.464;2023-03-23T13:55:16;12.73;;;4.57;;
42682;SDS011;28293;50.930;3.464;2023-03-23T14:10:56;14.10;;;4.05;;
42682;SDS011;28293;50.930;3.464;2023-03-23T14:16:37;10.93;;;3.00;;
42682;SDS011;28293;50.930;3.464;2023-03-23T14:19:15;13.27;;;4.28;;
42682;SDS011;28293;50.930;3.464;2023-03-23T14:21:48;13.73;;;3.78;;
42682;SDS011;28293;50.930;3.464;2023-03-23T14:24:28;15.20;;;4.28;;
42682;SDS011;28293;50.930;3.464;2023-03-23T14:27:02;12.32;;;4.35;;
42682;SDS011;28293;50.930;3.464;2023-03-23T14:29:35;13.63;;;3.92;;
42682;SDS011;28293;50.930;3.464;2023-03-23T14:32:01;10.32;;;4.05;;
42682;SDS011;28293;50.930;3.464;2023-03-23T14:34:30;12.88;;;3.67;;
42682;SDS011;28293;50.930;3.464;2023-03-23T14:36:58;11.68;;;4.05;;
42682;SDS011;28293;50.930;3.464;2023-03-23T14:39:26;17.08;;;3.70;;
42682;SDS011;28293;50.930;3.464;2023-03-23T14:41:53;15.43;;;4.00;;
42682;SDS011;28293;50.930;3.464;2023-03-23T14:44:29;11.65;;;3.45;;
42682;SDS011;28293;50.930;3.464;2023-03-23T14:46:57;13.20;;;3.65;;
42682;SDS011;28293;50.930;3.464;2023-03-23T14:49:34;15.13;;;3.88;;
42682;SDS011;28293;50.930;3.464;2023-03-23T14:52:08;13.88;;;4.03;;
42682;SDS011;28293;50.930;3.464;2023-03-23T14:54:43;16.67;;;4.00;;
42682;SDS011;28293;50.930;3.464;2023-03-23T14:57:14;12.88;;;3.60;;
42682;SDS011;28293;50.930;3.464;2023-03-23T14:59:42;13.02;;;3.85;;
42682;SDS011;28293;50.930;3.464;2023-03-23T15:02:12;12.27;;;3.50;;
42682;SDS011;28293;50.930;3.464;2023-03-23T15:05:02;15.18;;;3.10;;
42682;SDS011;28293;50.930;3.464;2023-03-23T15:07:46;13.68;;;3.15;;
42682;SDS011;28293;50.930;3.464;2023-03-23T15:10:17;13.00;;;3.80;;
42682;SDS011;28293;50.930;3.464;2023-03-23T15:12:48;13.05;;;3.67;;
42682;SDS011;28293;50.930;3.464;2023-03-23T15:15:26;12.13;;;3.60;;
42682;SDS011;28293;50.930;3.464;2023-03-23T15:17:54;15.23;;;4.32;;
42682;SDS011;28293;50.930;3.464;2023-03-23T15:20:22;13.43;;;3.70;;
42682;SDS011;28293;50.930;3.464;2023-03-23T15:22:49;15.18;;;3.97;;
42682;SDS011;28293;50.930;3.464;2023-03-23T15:25:22;15.68;;;4.32;;
42682;SDS011;28293;50.930;3.464;2023-03-23T15:27:53;15.82;;;4.18;;
42682;SDS011;28293;50.930;3.464;2023-03-23T15:32:51;12.60;;;3.58;;
42682;SDS011;28293;50.930;3.464;2023-03-23T15:35:19;15.75;;;4.60;;
42682;SDS011;28293;50.930;3.464;2023-03-23T15:37:51;16.13;;;3.55;;
42682;SDS011;28293;50.930;3.464;2023-03-23T15:40:22;12.35;;;3.72;;
42682;SDS011;28293;50.930;3.464;2023-03-23T15:42:50;13.30;;;3.75;;
42682;SDS011;28293;50.930;3.464;2023-03-23T15:45:51;15.15;;;3.47;;
42682;SDS011;28293;50.930;3.464;2023-03-23T15:48:53;15.07;;;3.92;;
42682;SDS011;28293;50.930;3.464;2023-03-23T15:51:40;18.65;;;4.95;;
42682;SDS011;28293;50.930;3.464;2023-03-23T15:54:08;18.40;;;3.63;;
42682;SDS011;28293;50.930;3.464;2023-03-23T15:56:38;13.70;;;3.60;;
42682;SDS011;28293;50.930;3.464;2023-03-23T15:59:05;16.20;;;4.10;;
42682;SDS011;28293;50.930;3.464;2023-03-23T16:01:32;17.65;;;4.25;;
42682;SDS011;28293;50.930;3.464;2023-03-23T16:04:08;13.50;;;3.58;;
42682;SDS011;28293;50.930;3.464;2023-03-23T16:06:37;10.30;;;3.10;;
42682;SDS011;28293;50.930;3.464;2023-03-23T16:09:04;14.20;;;3.50;;
42682;SDS011;28293;50.930;3.464;2023-03-23T16:11:31;14.77;;;3.47;;
42682;SDS011;28293;50.930;3.464;2023-03-23T16:13:57;10.23;;;3.28;;
42682;SDS011;28293;50.930;3.464;2023-03-23T16:16:26;13.98;;;3.30;;
42682;SDS011;28293;50.930;3.464;2023-03-23T16:18:53;11.85;;;3.17;;
42682;SDS011;28293;50.930;3.464;2023-03-23T16:21:20;12.68;;;3.67;;
42682;SDS011;28293;50.930;3.464;2023-03-23T16:23:46;12.93;;;3.00;;
42682;SDS011;28293;50.930;3.464;2023-03-23T16:26:12;11.38;;;2.80;;
42682;SDS011;28293;50.930;3.464;2023-03-23T16:28:39;13.25;;;2.92;;
42682;SDS011;28293;50.930;3.464;2023-03-23T16:31:05;12.38;;;3.40;;
42682;SDS011;28293;50.930;3.464;2023-03-23T16:33:31;12.68;;;2.80;;
42682;SDS011;28293;50.930;3.464;2023-03-23T16:35:57;11.82;;;3.20;;
42682;SDS011;28293;50.930;3.464;2023-03-23T16:38:23;12.05;;;3.47;;
42682;SDS011;28293;50.930;3.464;2023-03-23T16:40:49;13.43;;;3.28;;
42682;SDS011;28293;50.930;3.464;2023-03-23T16:43:15;14.13;;;3.80;;
42682;SDS011;28293;50.930;3.464;2023-03-23T16:45:42;13.05;;;4.03;;
42682;SDS011;28293;50.930;3.464;2023-03-23T16:48:09;12.52;;;3.72;;
42682;SDS011;28293;50.930;3.464;2023-03-23T16:50:37;13.05;;;4.47;;
42682;SDS011;28293;50.930;3.464;2023-03-23T16:53:04;11.60;;;3.92;;
42682;SDS011;28293;50.930;3.464;2023-03-23T16:55:32;14.50;;;4.93;;
42682;SDS011;28293;50.930;3.464;2023-03-23T16:57:58;13.10;;;4.05;;
42682;SDS011;28293;50.930;3.464;2023-03-23T17:00:24;19.75;;;11.40;;
42682;SDS011;28293;50.930;3.464;2023-03-23T17:02:51;13.27;;;5.63;;
42682;SDS011;28293;50.930;3.464;2023-03-23T17:05:20;20.27;;;9.40;;
42682;SDS011;28293;50.930;3.464;2023-03-23T17:07:48;18.55;;;7.10;;
42682;SDS011;28293;50.930;3.464;2023-03-23T17:10:14;16.42;;;7.22;;
42682;SDS011;28293;50.930;3.464;2023-03-23T17:12:40;17.08;;;5.82;;
42682;SDS011;28293;50.930;3.464;2023-03-23T17:15:06;17.42;;;4.53;;
42682;SDS011;28293;50.930;3.464;2023-03-23T17:17:33;14.75;;;4.40;;
42682;SDS011;28293;50.930;3.464;2023-03-23T17:20:00;20.20;;;6.28;;
42682;SDS011;28293;50.930;3.464;2023-03-23T17:22:26;17.85;;;5.45;;
42682;SDS011;28293;50.930;3.464;2023-03-23T17:24:52;16.95;;;5.53;;
42682;SDS011;28293;50.930;3.464;2023-03-23T17:27:18;16.00;;;4.90;;